Jensen, Utah
Current Conditions -  °F | °C
As of 1:53 AM on Friday 19 Dec 2014 (Local Time) from KVEL Reporting Station
Overcast Overcast  
Wind Chill: 27°   Ceiling: 1100
Heat Index: 27°   Visibility: 10mi
Dew Point: 23°   Wind: 3mph
Humidity: 85%   Direction: 70°ENE
Pressure: 30.22"   Gusts: NA
Location:  40.37°N, 109.34°W
Report Text: KVEL 190853Z AUTO 07003KT 10SM OVC011 M03/M05 A3022 RMK AO2 SLP265 T10281050 55003
Loading
Personal Weather Stations






























Interactive Weather Map New forecast layout! Learn more

10-Day Weather Forecast

Advertisements
Track Severe Weather on mobile